NOZ118 EDDN-EIDW
Flight info
| Callsign | NOZ118 |
|---|---|
| Flight time | 2h 5m |
| Altitude | 36000 |
| Route | SULUS1C SULUS L604 BIGGE DCT PAM DCT RAVLO Y70 OTBED L60 PENIL UL28 LELDO M145 BAGSO BAGSO4L |
| Aircraft | B738/M-SDE2E3FGHIRWXY/LB1 |
Departure
| Time | 2026-02-20 07:35 |
|---|---|
| Airport | Nuremberg Airport (EDDN) |
Arrival
| Time | 2026-02-20 09:41 |
|---|---|
| Airport | Dublin Airport (EIDW) |
| Time | Latitude | Longitude | Altitude | Speed | Heading |
|---|---|---|---|---|---|
| 2026-02-20 06:36 | 49.49529 | 11.07660 | 1021 ft | 0 kts | 188° |
| 2026-02-20 07:23 | 49.49531 | 11.07661 | 1022 ft | 2 kts | 188° |
| 2026-02-20 07:23 | 49.49549 | 11.07665 | 1025 ft | 3 kts | 188° |
| 2026-02-20 07:23 | 49.49566 | 11.07668 | 1025 ft | 2 kts | 190° |
| 2026-02-20 07:23 | 49.49583 | 11.07676 | 1025 ft | 3 kts | 224° |
| 2026-02-20 07:24 | 49.49591 | 11.07699 | 1023 ft | 3 kts | 270° |
| 2026-02-20 07:24 | 49.49590 | 11.07723 | 1025 ft | 1 kts | 278° |
| 2026-02-20 07:24 | 49.49589 | 11.07731 | 1026 ft | 0 kts | 278° |
| 2026-02-20 07:28 | 49.49590 | 11.07729 | 1026 ft | 1 kts | 278° |
| 2026-02-20 07:29 | 49.49592 | 11.07707 | 1024 ft | 3 kts | 278° |
| 2026-02-20 07:29 | 49.49597 | 11.07658 | 1024 ft | 6 kts | 278° |
| 2026-02-20 07:29 | 49.49604 | 11.07578 | 1022 ft | 9 kts | 278° |
| 2026-02-20 07:29 | 49.49615 | 11.07471 | 1022 ft | 11 kts | 278° |
| 2026-02-20 07:30 | 49.49627 | 11.07349 | 1024 ft | 12 kts | 278° |
| 2026-02-20 07:30 | 49.49636 | 11.07256 | 1024 ft | 7 kts | 282° |
| 2026-02-20 07:30 | 49.49680 | 11.07228 | 1022 ft | 9 kts | 9° |
| 2026-02-20 07:30 | 49.49738 | 11.07187 | 1021 ft | 11 kts | 288° |
| 2026-02-20 07:31 | 49.49751 | 11.07057 | 1020 ft | 13 kts | 278° |
| 2026-02-20 07:31 | 49.49766 | 11.06906 | 1019 ft | 15 kts | 279° |
| 2026-02-20 07:31 | 49.49783 | 11.06737 | 1019 ft | 16 kts | 279° |
| 2026-02-20 07:31 | 49.49801 | 11.06567 | 1019 ft | 16 kts | 279° |
| 2026-02-20 07:32 | 49.49817 | 11.06396 | 1018 ft | 17 kts | 278° |
| 2026-02-20 07:32 | 49.49835 | 11.06207 | 1018 ft | 18 kts | 278° |
| 2026-02-20 07:32 | 49.49851 | 11.06045 | 1020 ft | 11 kts | 281° |
| 2026-02-20 07:32 | 49.49902 | 11.05965 | 1022 ft | 11 kts | 335° |
| 2026-02-20 07:33 | 49.49931 | 11.05949 | 1023 ft | 0 kts | 342° |
| 2026-02-20 07:33 | 49.49936 | 11.05947 | 1023 ft | 1 kts | 342° |
| 2026-02-20 07:34 | 49.49958 | 11.05936 | 1023 ft | 5 kts | 342° |
| 2026-02-20 07:34 | 49.50004 | 11.05932 | 1024 ft | 8 kts | 18° |
| 2026-02-20 07:34 | 49.50045 | 11.06014 | 1025 ft | 13 kts | 82° |
| 2026-02-20 07:34 | 49.50027 | 11.06206 | 1024 ft | 32 kts | 99° |
| 2026-02-20 07:35 | 49.49957 | 11.06931 | 1023 ft | 103 kts | 98° |
| 2026-02-20 07:35 | 49.49818 | 11.08337 | 1036 ft | 160 kts | 98° |
| 2026-02-20 07:35 | 49.49626 | 11.10179 | 1482 ft | 176 kts | 99° |
| 2026-02-20 07:35 | 49.49440 | 11.11950 | 2655 ft | 163 kts | 99° |
| 2026-02-20 07:36 | 49.49278 | 11.13751 | 3280 ft | 180 kts | 99° |
| 2026-02-20 07:36 | 49.49099 | 11.15764 | 3743 ft | 196 kts | 99° |
| 2026-02-20 07:36 | 49.49007 | 11.17901 | 4188 ft | 210 kts | 88° |
| 2026-02-20 07:36 | 49.49338 | 11.20218 | 4461 ft | 234 kts | 70° |
| 2026-02-20 07:37 | 49.50286 | 11.22277 | 5066 ft | 243 kts | 39° |
| 2026-02-20 07:37 | 49.51752 | 11.23557 | 5854 ft | 242 kts | 27° |
| 2026-02-20 07:37 | 49.53300 | 11.24836 | 6170 ft | 268 kts | 33° |
| 2026-02-20 07:37 | 49.54817 | 11.26500 | 6782 ft | 271 kts | 39° |
| 2026-02-20 07:38 | 49.56309 | 11.28289 | 7112 ft | 271 kts | 39° |
| 2026-02-20 07:38 | 49.57809 | 11.30019 | 7149 ft | 269 kts | 31° |
| 2026-02-20 07:38 | 49.59593 | 11.30781 | 7173 ft | 272 kts | 1° |
| 2026-02-20 07:38 | 49.61458 | 11.30185 | 7189 ft | 279 kts | 338° |
| 2026-02-20 07:39 | 49.63194 | 11.28824 | 7187 ft | 281 kts | 332° |
| 2026-02-20 07:39 | 49.64912 | 11.27347 | 7190 ft | 282 kts | 332° |
| 2026-02-20 07:39 | 49.66621 | 11.25863 | 7452 ft | 283 kts | 332° |
| 2026-02-20 07:39 | 49.68340 | 11.24380 | 8309 ft | 282 kts | 332° |
| 2026-02-20 07:40 | 49.69111 | 11.23719 | 8722 ft | 282 kts | 332° |
| 2026-02-20 07:40 | 49.69933 | 11.23015 | 9137 ft | 283 kts | 333° |
| 2026-02-20 07:40 | 49.71668 | 11.21537 | 9951 ft | 287 kts | 333° |
| 2026-02-20 07:40 | 49.73437 | 11.20035 | 10589 ft | 296 kts | 333° |
| 2026-02-20 07:41 | 49.75311 | 11.18449 | 10803 ft | 319 kts | 333° |
| 2026-02-20 07:41 | 49.77330 | 11.16740 | 10994 ft | 342 kts | 333° |
| 2026-02-20 07:41 | 49.79477 | 11.14920 | 11167 ft | 363 kts | 332° |
| 2026-02-20 07:41 | 49.81749 | 11.12992 | 11403 ft | 380 kts | 332° |
| 2026-02-20 07:42 | 49.84063 | 11.10928 | 11945 ft | 387 kts | 326° |
| 2026-02-20 07:42 | 49.86054 | 11.08104 | 12668 ft | 390 kts | 314° |
| 2026-02-20 07:42 | 49.87897 | 11.05003 | 13157 ft | 390 kts | 313° |
| 2026-02-20 07:42 | 49.89743 | 11.01901 | 13280 ft | 394 kts | 313° |
| 2026-02-20 07:43 | 49.91569 | 10.98870 | 13276 ft | 393 kts | 314° |
| 2026-02-20 07:43 | 49.93441 | 10.95795 | 13286 ft | 392 kts | 314° |
| 2026-02-20 07:43 | 49.97196 | 10.89682 | 13293 ft | 391 kts | 314° |
| 2026-02-20 07:44 | 49.99077 | 10.86627 | 13296 ft | 391 kts | 314° |
| 2026-02-20 07:44 | 50.00954 | 10.83577 | 13292 ft | 391 kts | 314° |
| 2026-02-20 07:44 | 50.02833 | 10.80519 | 13310 ft | 391 kts | 314° |
| 2026-02-20 07:44 | 50.04711 | 10.77459 | 13312 ft | 391 kts | 314° |
| 2026-02-20 07:45 | 50.06590 | 10.74392 | 13304 ft | 391 kts | 314° |
| 2026-02-20 07:45 | 50.08467 | 10.71327 | 13307 ft | 392 kts | 314° |
| 2026-02-20 07:45 | 50.09484 | 10.69671 | 13316 ft | 392 kts | 314° |
| 2026-02-20 07:45 | 50.10344 | 10.68271 | 13301 ft | 392 kts | 314° |
| 2026-02-20 07:46 | 50.11537 | 10.66329 | 13320 ft | 392 kts | 314° |
| 2026-02-20 07:46 | 50.13045 | 10.63872 | 13317 ft | 392 kts | 314° |
| 2026-02-20 07:46 | 50.14903 | 10.60841 | 13306 ft | 392 kts | 314° |
| 2026-02-20 07:46 | 50.16783 | 10.57770 | 13317 ft | 391 kts | 313° |
| 2026-02-20 07:47 | 50.18649 | 10.54680 | 13319 ft | 391 kts | 313° |
| 2026-02-20 07:47 | 50.19641 | 10.53024 | 13307 ft | 391 kts | 313° |
| 2026-02-20 07:47 | 50.20240 | 10.52023 | 13320 ft | 390 kts | 313° |
| 2026-02-20 07:47 | 50.22089 | 10.48929 | 13303 ft | 390 kts | 313° |
| 2026-02-20 07:48 | 50.23957 | 10.45861 | 13317 ft | 390 kts | 314° |
| 2026-02-20 07:48 | 50.25852 | 10.42836 | 13319 ft | 389 kts | 314° |
| 2026-02-20 07:48 | 50.27754 | 10.39821 | 13305 ft | 389 kts | 314° |
| 2026-02-20 07:48 | 50.29654 | 10.36799 | 13304 ft | 389 kts | 314° |
| 2026-02-20 07:49 | 50.31290 | 10.34185 | 12767 ft | 390 kts | 314° |
| 2026-02-20 07:49 | 50.32503 | 10.32241 | 12824 ft | 385 kts | 314° |
| 2026-02-20 07:49 | 50.34365 | 10.29249 | 12953 ft | 384 kts | 314° |
| 2026-02-20 07:50 | 50.36189 | 10.26173 | 13016 ft | 386 kts | 310° |
| 2026-02-20 07:50 | 50.37870 | 10.22886 | 13071 ft | 387 kts | 307° |
| 2026-02-20 07:50 | 50.39610 | 10.19666 | 13101 ft | 388 kts | 314° |
| 2026-02-20 07:50 | 50.41159 | 10.17241 | 13108 ft | 389 kts | 315° |
| 2026-02-20 07:51 | 50.41892 | 10.16116 | 13107 ft | 389 kts | 315° |
| 2026-02-20 07:51 | 50.43445 | 10.13720 | 13103 ft | 390 kts | 315° |
| 2026-02-20 07:51 | 50.44813 | 10.11558 | 13099 ft | 390 kts | 314° |
| 2026-02-20 07:51 | 50.46657 | 10.08447 | 13098 ft | 389 kts | 312° |
| 2026-02-20 07:52 | 50.48471 | 10.05295 | 13099 ft | 389 kts | 312° |
| 2026-02-20 07:52 | 50.50286 | 10.02148 | 13102 ft | 389 kts | 312° |
| 2026-02-20 07:52 | 50.52066 | 9.99085 | 13103 ft | 388 kts | 312° |
| 2026-02-20 07:52 | 50.53895 | 9.95951 | 13102 ft | 388 kts | 312° |
| 2026-02-20 07:53 | 50.55682 | 9.92782 | 13100 ft | 388 kts | 310° |
| 2026-02-20 07:53 | 50.57403 | 9.89518 | 13101 ft | 387 kts | 309° |
| 2026-02-20 07:53 | 50.59104 | 9.86234 | 13102 ft | 387 kts | 309° |
| 2026-02-20 07:53 | 50.60806 | 9.82955 | 13101 ft | 387 kts | 309° |
| 2026-02-20 07:54 | 50.62515 | 9.79688 | 13100 ft | 386 kts | 309° |
| 2026-02-20 07:54 | 50.64229 | 9.76429 | 13102 ft | 386 kts | 309° |
| 2026-02-20 07:54 | 50.65943 | 9.73172 | 13102 ft | 386 kts | 309° |
| 2026-02-20 07:54 | 50.67651 | 9.69911 | 13100 ft | 386 kts | 309° |
| 2026-02-20 07:55 | 50.69354 | 9.66639 | 13101 ft | 386 kts | 309° |
| 2026-02-20 07:55 | 50.71034 | 9.63402 | 13103 ft | 386 kts | 309° |
| 2026-02-20 07:55 | 50.72732 | 9.60130 | 13101 ft | 386 kts | 309° |
| 2026-02-20 07:55 | 50.74439 | 9.56852 | 13101 ft | 386 kts | 309° |
| 2026-02-20 07:56 | 50.76151 | 9.53581 | 13101 ft | 386 kts | 309° |
| 2026-02-20 07:56 | 50.77862 | 9.50313 | 13102 ft | 386 kts | 309° |
| 2026-02-20 07:56 | 50.79574 | 9.47041 | 13100 ft | 386 kts | 309° |
| 2026-02-20 07:56 | 50.81286 | 9.43764 | 13101 ft | 387 kts | 309° |
| 2026-02-20 07:57 | 50.82997 | 9.40481 | 13103 ft | 387 kts | 309° |
| 2026-02-20 07:57 | 50.84705 | 9.37200 | 13101 ft | 387 kts | 309° |
| 2026-02-20 07:57 | 50.86416 | 9.33907 | 13101 ft | 387 kts | 309° |
| 2026-02-20 07:57 | 50.88119 | 9.30625 | 13101 ft | 386 kts | 309° |
| 2026-02-20 07:58 | 50.89248 | 9.28447 | 13101 ft | 386 kts | 309° |
| 2026-02-20 07:58 | 50.90951 | 9.25157 | 13101 ft | 386 kts | 309° |
| 2026-02-20 07:58 | 50.92655 | 9.21862 | 13101 ft | 386 kts | 309° |
| 2026-02-20 07:58 | 50.94354 | 9.18572 | 13101 ft | 386 kts | 309° |
| 2026-02-20 07:59 | 50.96052 | 9.15281 | 13101 ft | 386 kts | 309° |
| 2026-02-20 07:59 | 50.97749 | 9.11986 | 13102 ft | 386 kts | 309° |
| 2026-02-20 07:59 | 50.99449 | 9.08682 | 13101 ft | 386 kts | 309° |
| 2026-02-20 07:59 | 51.01143 | 9.05385 | 13100 ft | 386 kts | 309° |
| 2026-02-20 08:00 | 51.02840 | 9.02077 | 13102 ft | 387 kts | 309° |
| 2026-02-20 08:00 | 51.04499 | 8.98841 | 13102 ft | 387 kts | 309° |
| 2026-02-20 08:00 | 51.06198 | 8.95522 | 13102 ft | 387 kts | 309° |
| 2026-02-20 08:00 | 51.07896 | 8.92199 | 13101 ft | 387 kts | 309° |
| 2026-02-20 08:01 | 51.09597 | 8.88868 | 13102 ft | 387 kts | 309° |
| 2026-02-20 08:01 | 51.11291 | 8.85548 | 13101 ft | 387 kts | 309° |
| 2026-02-20 08:01 | 51.12987 | 8.82218 | 13100 ft | 387 kts | 309° |
| 2026-02-20 08:01 | 51.14678 | 8.78889 | 13100 ft | 387 kts | 309° |
| 2026-02-20 08:02 | 51.16370 | 8.75553 | 13102 ft | 386 kts | 309° |
| 2026-02-20 08:02 | 51.18054 | 8.72224 | 13101 ft | 386 kts | 309° |
| 2026-02-20 08:02 | 51.19745 | 8.68878 | 13155 ft | 390 kts | 309° |
| 2026-02-20 08:02 | 51.21455 | 8.65489 | 13698 ft | 394 kts | 309° |
| 2026-02-20 08:03 | 51.23174 | 8.62080 | 14397 ft | 394 kts | 309° |
| 2026-02-20 08:03 | 51.24897 | 8.58657 | 14994 ft | 398 kts | 309° |
| 2026-02-20 08:03 | 51.26637 | 8.55196 | 15536 ft | 402 kts | 309° |
| 2026-02-20 08:03 | 51.28390 | 8.51708 | 16139 ft | 404 kts | 309° |
| 2026-02-20 08:04 | 51.30147 | 8.48206 | 16749 ft | 405 kts | 309° |
| 2026-02-20 08:04 | 51.31915 | 8.44668 | 17226 ft | 410 kts | 308° |
| 2026-02-20 08:04 | 51.33518 | 8.40886 | 17721 ft | 413 kts | 299° |
| 2026-02-20 08:04 | 51.34849 | 8.36802 | 18254 ft | 415 kts | 297° |
| 2026-02-20 08:05 | 51.36148 | 8.32662 | 18773 ft | 417 kts | 296° |
| 2026-02-20 08:05 | 51.37449 | 8.28488 | 19230 ft | 421 kts | 296° |
| 2026-02-20 08:05 | 51.38769 | 8.24273 | 19671 ft | 425 kts | 296° |
| 2026-02-20 08:05 | 51.39232 | 8.22803 | 19827 ft | 426 kts | 297° |
| 2026-02-20 08:06 | 51.39724 | 8.21241 | 20001 ft | 426 kts | 297° |
| 2026-02-20 08:06 | 51.40409 | 8.19074 | 20249 ft | 428 kts | 297° |
| 2026-02-20 08:06 | 51.41759 | 8.14819 | 20705 ft | 430 kts | 297° |
| 2026-02-20 08:06 | 51.42477 | 8.12559 | 20939 ft | 431 kts | 297° |
| 2026-02-20 08:07 | 51.43754 | 8.08547 | 21336 ft | 433 kts | 297° |
| 2026-02-20 08:07 | 51.45129 | 8.04227 | 21747 ft | 436 kts | 297° |
| 2026-02-20 08:07 | 51.46500 | 7.99914 | 22148 ft | 438 kts | 297° |
| 2026-02-20 08:07 | 51.47856 | 7.95646 | 22526 ft | 440 kts | 297° |
| 2026-02-20 08:08 | 51.49247 | 7.91254 | 22889 ft | 443 kts | 297° |
| 2026-02-20 08:08 | 51.50644 | 7.86838 | 23248 ft | 445 kts | 297° |
| 2026-02-20 08:08 | 51.52047 | 7.82395 | 23602 ft | 448 kts | 297° |
| 2026-02-20 08:08 | 51.53455 | 7.77926 | 23938 ft | 450 kts | 297° |
| 2026-02-20 08:09 | 51.54867 | 7.73436 | 24291 ft | 451 kts | 297° |
| 2026-02-20 08:09 | 51.56285 | 7.68919 | 24620 ft | 453 kts | 297° |
| 2026-02-20 08:09 | 51.57704 | 7.64390 | 24934 ft | 455 kts | 296° |
| 2026-02-20 08:09 | 51.59131 | 7.59827 | 25233 ft | 457 kts | 296° |
| 2026-02-20 08:10 | 51.60561 | 7.55247 | 25518 ft | 459 kts | 296° |
| 2026-02-20 08:10 | 51.61995 | 7.50645 | 25816 ft | 461 kts | 296° |
| 2026-02-20 08:10 | 51.63433 | 7.46019 | 26076 ft | 463 kts | 296° |
| 2026-02-20 08:10 | 51.64875 | 7.41373 | 26342 ft | 465 kts | 296° |
| 2026-02-20 08:11 | 51.66320 | 7.36709 | 26614 ft | 466 kts | 296° |
| 2026-02-20 08:11 | 51.67764 | 7.32038 | 26934 ft | 466 kts | 296° |
| 2026-02-20 08:11 | 51.69204 | 7.27374 | 27288 ft | 464 kts | 296° |
| 2026-02-20 08:11 | 51.70640 | 7.22712 | 27650 ft | 463 kts | 296° |
| 2026-02-20 08:12 | 51.72069 | 7.18064 | 27990 ft | 462 kts | 296° |
| 2026-02-20 08:12 | 51.73493 | 7.13420 | 28330 ft | 462 kts | 296° |
| 2026-02-20 08:12 | 51.74914 | 7.08780 | 28660 ft | 461 kts | 296° |
| 2026-02-20 08:12 | 51.76332 | 7.04142 | 28978 ft | 461 kts | 296° |
| 2026-02-20 08:13 | 51.77712 | 6.99617 | 29297 ft | 460 kts | 296° |
| 2026-02-20 08:13 | 51.79122 | 6.94990 | 29618 ft | 459 kts | 296° |
| 2026-02-20 08:13 | 51.80529 | 6.90358 | 29928 ft | 458 kts | 296° |
| 2026-02-20 08:13 | 51.81931 | 6.85738 | 30232 ft | 458 kts | 296° |
| 2026-02-20 08:14 | 51.83328 | 6.81121 | 30543 ft | 457 kts | 296° |
| 2026-02-20 08:14 | 51.84722 | 6.76509 | 30835 ft | 456 kts | 296° |
| 2026-02-20 08:14 | 51.86112 | 6.71901 | 31123 ft | 456 kts | 296° |
| 2026-02-20 08:14 | 51.87498 | 6.67297 | 31407 ft | 455 kts | 296° |
| 2026-02-20 08:15 | 51.88883 | 6.62687 | 31688 ft | 454 kts | 296° |
| 2026-02-20 08:15 | 51.90262 | 6.58090 | 31962 ft | 454 kts | 296° |
| 2026-02-20 08:15 | 51.91637 | 6.53494 | 32238 ft | 453 kts | 296° |
| 2026-02-20 08:15 | 51.93008 | 6.48904 | 32505 ft | 453 kts | 296° |
| 2026-02-20 08:16 | 51.94376 | 6.44317 | 32765 ft | 452 kts | 296° |
| 2026-02-20 08:16 | 51.95740 | 6.39733 | 33018 ft | 451 kts | 296° |
| 2026-02-20 08:16 | 51.97101 | 6.35151 | 33273 ft | 451 kts | 296° |
| 2026-02-20 08:16 | 51.98460 | 6.30566 | 33531 ft | 450 kts | 295° |
| 2026-02-20 08:17 | 51.99796 | 6.26052 | 33759 ft | 450 kts | 295° |
| 2026-02-20 08:17 | 52.01143 | 6.21489 | 33999 ft | 449 kts | 295° |
| 2026-02-20 08:17 | 52.02490 | 6.16921 | 34239 ft | 448 kts | 295° |
| 2026-02-20 08:17 | 52.03833 | 6.12356 | 34469 ft | 448 kts | 295° |
| 2026-02-20 08:18 | 52.05173 | 6.07793 | 34687 ft | 448 kts | 295° |
| 2026-02-20 08:18 | 52.06512 | 6.03222 | 34895 ft | 447 kts | 295° |
| 2026-02-20 08:18 | 52.07816 | 5.98766 | 35123 ft | 446 kts | 295° |
| 2026-02-20 08:18 | 52.09143 | 5.94219 | 35406 ft | 444 kts | 295° |
| 2026-02-20 08:19 | 52.10463 | 5.89691 | 35689 ft | 442 kts | 295° |
| 2026-02-20 08:19 | 52.11775 | 5.85181 | 35943 ft | 441 kts | 295° |
| 2026-02-20 08:19 | 52.14407 | 5.76106 | 36001 ft | 444 kts | 295° |
| 2026-02-20 08:20 | 52.17027 | 5.67034 | 35994 ft | 441 kts | 295° |
| 2026-02-20 08:20 | 52.19619 | 5.58029 | 35999 ft | 438 kts | 295° |
| 2026-02-20 08:21 | 52.22189 | 5.49067 | 36000 ft | 435 kts | 295° |
| 2026-02-20 08:21 | 52.24743 | 5.40124 | 36002 ft | 435 kts | 295° |
| 2026-02-20 08:22 | 52.27292 | 5.31165 | 36004 ft | 435 kts | 295° |
| 2026-02-20 08:22 | 52.29840 | 5.22175 | 36004 ft | 437 kts | 295° |
| 2026-02-20 08:23 | 52.32396 | 5.13129 | 36003 ft | 439 kts | 295° |
| 2026-02-20 08:23 | 52.35007 | 5.04078 | 36001 ft | 441 kts | 296° |
| 2026-02-20 08:24 | 52.37775 | 4.95225 | 36004 ft | 443 kts | 297° |
| 2026-02-20 08:24 | 52.40599 | 4.86250 | 36001 ft | 444 kts | 297° |
| 2026-02-20 08:25 | 52.43400 | 4.77228 | 36003 ft | 445 kts | 297° |
| 2026-02-20 08:25 | 52.46181 | 4.68180 | 36002 ft | 444 kts | 296° |
| 2026-02-20 08:26 | 52.48933 | 4.59178 | 36000 ft | 444 kts | 296° |
| 2026-02-20 08:26 | 52.51690 | 4.50127 | 36001 ft | 443 kts | 296° |
| 2026-02-20 08:27 | 52.54434 | 4.41086 | 35999 ft | 442 kts | 296° |
| 2026-02-20 08:27 | 52.57169 | 4.32043 | 35999 ft | 441 kts | 296° |
| 2026-02-20 08:28 | 52.59889 | 4.23013 | 36002 ft | 440 kts | 296° |
| 2026-02-20 08:28 | 52.62598 | 4.13989 | 36004 ft | 440 kts | 296° |
| 2026-02-20 08:29 | 52.65299 | 4.04956 | 36000 ft | 439 kts | 296° |
| 2026-02-20 08:29 | 52.67958 | 3.96030 | 36000 ft | 439 kts | 296° |
| 2026-02-20 08:30 | 52.70641 | 3.86989 | 36003 ft | 439 kts | 296° |
| 2026-02-20 08:30 | 52.73319 | 3.77930 | 36004 ft | 439 kts | 296° |
| 2026-02-20 08:31 | 52.75991 | 3.68857 | 36003 ft | 440 kts | 296° |
| 2026-02-20 08:31 | 52.78659 | 3.59763 | 36002 ft | 440 kts | 296° |
| 2026-02-20 08:32 | 52.81325 | 3.50643 | 36002 ft | 441 kts | 296° |
| 2026-02-20 08:33 | 52.85313 | 3.36929 | 35999 ft | 441 kts | 295° |
| 2026-02-20 08:33 | 52.87966 | 3.27765 | 36005 ft | 442 kts | 295° |
| 2026-02-20 08:34 | 52.90617 | 3.18576 | 36000 ft | 442 kts | 295° |
| 2026-02-20 08:34 | 52.92603 | 3.08983 | 36009 ft | 441 kts | 282° |
| 2026-02-20 08:35 | 52.94463 | 2.94154 | 36000 ft | 442 kts | 282° |
| 2026-02-20 08:35 | 52.95730 | 2.84183 | 35998 ft | 442 kts | 282° |
| 2026-02-20 08:36 | 52.97017 | 2.74224 | 36001 ft | 442 kts | 282° |
| 2026-02-20 08:36 | 52.98294 | 2.64330 | 36001 ft | 442 kts | 282° |
| 2026-02-20 08:37 | 52.99572 | 2.54358 | 35999 ft | 441 kts | 282° |
| 2026-02-20 08:37 | 53.00838 | 2.44395 | 36001 ft | 441 kts | 282° |
| 2026-02-20 08:38 | 53.02095 | 2.34425 | 36005 ft | 441 kts | 282° |
| 2026-02-20 08:38 | 53.03345 | 2.24446 | 35999 ft | 441 kts | 282° |
| 2026-02-20 08:39 | 53.04587 | 2.14469 | 36005 ft | 441 kts | 282° |
| 2026-02-20 08:39 | 53.05820 | 2.04489 | 36000 ft | 441 kts | 281° |
| 2026-02-20 08:40 | 53.07032 | 1.94619 | 36003 ft | 441 kts | 281° |
| 2026-02-20 08:40 | 53.08250 | 1.84631 | 36001 ft | 441 kts | 281° |
| 2026-02-20 08:41 | 53.09462 | 1.74628 | 35999 ft | 441 kts | 281° |
| 2026-02-20 08:41 | 53.10664 | 1.64629 | 36002 ft | 441 kts | 281° |
| 2026-02-20 08:42 | 53.11858 | 1.54623 | 36005 ft | 441 kts | 281° |
| 2026-02-20 08:42 | 53.13043 | 1.44610 | 36001 ft | 441 kts | 281° |
| 2026-02-20 08:43 | 53.14221 | 1.34582 | 36001 ft | 441 kts | 281° |
| 2026-02-20 08:43 | 53.15390 | 1.24557 | 36003 ft | 441 kts | 281° |
| 2026-02-20 08:44 | 53.16552 | 1.14515 | 36005 ft | 441 kts | 281° |
| 2026-02-20 08:44 | 53.17510 | 1.06169 | 35999 ft | 441 kts | 281° |
| 2026-02-20 08:45 | 53.18643 | 0.96240 | 35999 ft | 441 kts | 281° |
| 2026-02-20 08:45 | 53.19972 | 0.84487 | 35999 ft | 441 kts | 281° |
| 2026-02-20 08:46 | 53.20909 | 0.76128 | 36001 ft | 441 kts | 281° |
| 2026-02-20 08:46 | 53.22031 | 0.66064 | 35999 ft | 441 kts | 280° |
| 2026-02-20 08:47 | 53.23144 | 0.55987 | 36003 ft | 441 kts | 280° |
| 2026-02-20 08:47 | 53.24250 | 0.45918 | 36001 ft | 441 kts | 280° |
| 2026-02-20 08:48 | 53.25343 | 0.35831 | 35999 ft | 441 kts | 280° |
| 2026-02-20 08:48 | 53.26420 | 0.25745 | 35999 ft | 441 kts | 280° |
| 2026-02-20 08:49 | 53.27491 | 0.15647 | 35999 ft | 441 kts | 280° |
| 2026-02-20 08:49 | 53.28555 | 0.05552 | 36001 ft | 441 kts | 280° |
| 2026-02-20 08:50 | 53.29595 | -0.04424 | 36002 ft | 441 kts | 279° |
| 2026-02-20 08:50 | 53.30639 | -0.14542 | 36004 ft | 441 kts | 279° |
| 2026-02-20 08:51 | 53.31675 | -0.24659 | 35999 ft | 442 kts | 279° |
| 2026-02-20 08:51 | 53.32705 | -0.34787 | 36005 ft | 442 kts | 279° |
| 2026-02-20 08:52 | 53.33720 | -0.44849 | 36001 ft | 442 kts | 279° |
| 2026-02-20 08:52 | 53.34739 | -0.54973 | 36000 ft | 442 kts | 279° |
| 2026-02-20 08:53 | 53.35753 | -0.65114 | 36005 ft | 442 kts | 279° |
| 2026-02-20 08:53 | 53.36744 | -0.75258 | 36002 ft | 442 kts | 279° |
| 2026-02-20 08:54 | 53.37722 | -0.85416 | 35999 ft | 442 kts | 279° |
| 2026-02-20 08:54 | 53.38699 | -0.95566 | 36001 ft | 441 kts | 279° |
| 2026-02-20 08:55 | 53.39693 | -1.05589 | 36000 ft | 441 kts | 279° |
| 2026-02-20 08:55 | 53.40666 | -1.15740 | 36000 ft | 441 kts | 279° |
| 2026-02-20 08:56 | 53.41618 | -1.25908 | 36002 ft | 441 kts | 278° |
| 2026-02-20 08:56 | 53.42553 | -1.36076 | 36007 ft | 441 kts | 279° |
| 2026-02-20 08:57 | 53.43509 | -1.46241 | 36000 ft | 442 kts | 279° |
| 2026-02-20 08:57 | 53.44453 | -1.56426 | 36003 ft | 442 kts | 278° |
| 2026-02-20 08:58 | 53.45379 | -1.66616 | 36002 ft | 442 kts | 278° |
| 2026-02-20 08:58 | 53.46300 | -1.76824 | 36003 ft | 443 kts | 278° |
| 2026-02-20 08:59 | 53.47210 | -1.87064 | 36001 ft | 444 kts | 278° |
| 2026-02-20 08:59 | 53.48098 | -1.97319 | 36010 ft | 444 kts | 278° |
| 2026-02-20 09:00 | 53.48971 | -2.07472 | 36004 ft | 445 kts | 278° |
| 2026-02-20 09:00 | 53.49849 | -2.17759 | 35998 ft | 445 kts | 278° |
| 2026-02-20 09:01 | 53.50720 | -2.28031 | 36000 ft | 444 kts | 278° |
| 2026-02-20 09:01 | 53.51583 | -2.38289 | 36000 ft | 443 kts | 278° |
| 2026-02-20 09:02 | 53.52437 | -2.48541 | 36001 ft | 442 kts | 278° |
| 2026-02-20 09:02 | 53.52575 | -2.50201 | 36004 ft | 442 kts | 278° |
| 2026-02-20 09:03 | 53.54666 | -2.75842 | 36000 ft | 440 kts | 277° |
| 2026-02-20 09:04 | 53.55483 | -2.86050 | 36005 ft | 440 kts | 277° |
| 2026-02-20 09:04 | 53.56188 | -2.94952 | 36004 ft | 440 kts | 277° |
| 2026-02-20 09:05 | 53.56928 | -3.04388 | 36004 ft | 440 kts | 277° |
| 2026-02-20 09:05 | 53.57720 | -3.14603 | 36002 ft | 440 kts | 277° |
| 2026-02-20 09:06 | 53.58504 | -3.24819 | 36001 ft | 440 kts | 277° |
| 2026-02-20 09:06 | 53.59281 | -3.35071 | 35557 ft | 448 kts | 277° |
| 2026-02-20 09:07 | 53.59673 | -3.40288 | 34967 ft | 447 kts | 277° |
| 2026-02-20 09:07 | 53.60060 | -3.45479 | 34332 ft | 447 kts | 277° |
| 2026-02-20 09:07 | 53.60446 | -3.50670 | 33688 ft | 447 kts | 277° |
| 2026-02-20 09:07 | 53.60831 | -3.55865 | 33027 ft | 447 kts | 277° |
| 2026-02-20 09:08 | 53.61212 | -3.61062 | 32342 ft | 447 kts | 277° |
| 2026-02-20 09:08 | 53.61688 | -3.66238 | 31648 ft | 448 kts | 283° |
| 2026-02-20 09:08 | 53.62616 | -3.71247 | 30862 ft | 450 kts | 292° |
| 2026-02-20 09:08 | 53.63826 | -3.76088 | 30551 ft | 447 kts | 293° |
| 2026-02-20 09:09 | 53.65011 | -3.80796 | 30411 ft | 436 kts | 292° |
| 2026-02-20 09:09 | 53.66153 | -3.85444 | 30256 ft | 423 kts | 292° |
| 2026-02-20 09:09 | 53.67238 | -3.89969 | 30199 ft | 409 kts | 292° |
| 2026-02-20 09:09 | 53.68276 | -3.94349 | 30182 ft | 395 kts | 291° |
| 2026-02-20 09:10 | 53.69286 | -3.98572 | 30182 ft | 381 kts | 292° |
| 2026-02-20 09:10 | 53.70253 | -4.02551 | 30170 ft | 369 kts | 292° |
| 2026-02-20 09:10 | 53.71201 | -4.06513 | 30003 ft | 361 kts | 289° |
| 2026-02-20 09:10 | 53.71821 | -4.10646 | 29454 ft | 365 kts | 277° |
| 2026-02-20 09:11 | 53.72000 | -4.14238 | 29048 ft | 362 kts | 273° |
| 2026-02-20 09:11 | 53.72061 | -4.16071 | 28833 ft | 361 kts | 272° |
| 2026-02-20 09:11 | 53.72188 | -4.20287 | 29347 ft | 355 kts | 270° |
| 2026-02-20 09:11 | 53.72313 | -4.24405 | 28748 ft | 348 kts | 270° |
| 2026-02-20 09:12 | 53.72443 | -4.28441 | 28186 ft | 341 kts | 270° |
| 2026-02-20 09:12 | 53.72579 | -4.32402 | 27633 ft | 335 kts | 270° |
| 2026-02-20 09:12 | 53.72717 | -4.36300 | 27096 ft | 329 kts | 270° |
| 2026-02-20 09:12 | 53.72852 | -4.40129 | 26551 ft | 324 kts | 270° |
| 2026-02-20 09:13 | 53.72984 | -4.43880 | 26032 ft | 317 kts | 270° |
| 2026-02-20 09:13 | 53.73112 | -4.47558 | 25516 ft | 311 kts | 270° |
| 2026-02-20 09:13 | 53.73237 | -4.51167 | 25011 ft | 305 kts | 270° |
| 2026-02-20 09:13 | 53.73359 | -4.54713 | 24518 ft | 300 kts | 270° |
| 2026-02-20 09:14 | 53.73478 | -4.58198 | 24037 ft | 295 kts | 270° |
| 2026-02-20 09:14 | 53.73594 | -4.61631 | 23560 ft | 291 kts | 270° |
| 2026-02-20 09:14 | 53.73707 | -4.65029 | 23034 ft | 289 kts | 270° |
| 2026-02-20 09:14 | 53.73819 | -4.68403 | 22331 ft | 289 kts | 270° |
| 2026-02-20 09:15 | 53.73932 | -4.71842 | 21447 ft | 296 kts | 269° |
| 2026-02-20 09:15 | 53.74046 | -4.75346 | 20518 ft | 302 kts | 269° |
| 2026-02-20 09:15 | 53.74161 | -4.78929 | 19613 ft | 310 kts | 269° |
| 2026-02-20 09:15 | 53.74278 | -4.82595 | 19093 ft | 312 kts | 269° |
| 2026-02-20 09:16 | 53.74400 | -4.86336 | 18267 ft | 324 kts | 269° |
| 2026-02-20 09:16 | 53.74527 | -4.90168 | 17419 ft | 330 kts | 269° |
| 2026-02-20 09:16 | 53.74656 | -4.94050 | 16917 ft | 327 kts | 269° |
| 2026-02-20 09:16 | 53.74784 | -4.97800 | 16832 ft | 313 kts | 269° |
| 2026-02-20 09:17 | 53.74902 | -5.01305 | 16733 ft | 300 kts | 268° |
| 2026-02-20 09:17 | 53.75014 | -5.04801 | 16119 ft | 299 kts | 268° |
| 2026-02-20 09:17 | 53.75122 | -5.08265 | 15340 ft | 299 kts | 269° |
| 2026-02-20 09:17 | 53.75194 | -5.11774 | 14558 ft | 297 kts | 264° |
| 2026-02-20 09:18 | 53.74958 | -5.15227 | 13800 ft | 295 kts | 257° |
| 2026-02-20 09:18 | 53.74424 | -5.18547 | 12983 ft | 293 kts | 251° |
| 2026-02-20 09:18 | 53.73765 | -5.21803 | 12175 ft | 292 kts | 250° |
| 2026-02-20 09:18 | 53.73097 | -5.25039 | 11380 ft | 292 kts | 251° |
| 2026-02-20 09:19 | 53.72432 | -5.28268 | 10597 ft | 291 kts | 251° |
| 2026-02-20 09:19 | 53.71772 | -5.31490 | 9838 ft | 290 kts | 251° |
| 2026-02-20 09:19 | 53.71120 | -5.34686 | 9255 ft | 283 kts | 251° |
| 2026-02-20 09:19 | 53.70502 | -5.37726 | 9065 ft | 264 kts | 251° |
| 2026-02-20 09:20 | 53.69923 | -5.40572 | 8872 ft | 250 kts | 251° |
| 2026-02-20 09:20 | 53.69359 | -5.43338 | 8607 ft | 248 kts | 251° |
| 2026-02-20 09:20 | 53.68801 | -5.46068 | 8347 ft | 244 kts | 251° |
| 2026-02-20 09:20 | 53.68255 | -5.48754 | 8092 ft | 240 kts | 253° |
| 2026-02-20 09:21 | 53.68020 | -5.51437 | 8134 ft | 227 kts | 269° |
| 2026-02-20 09:21 | 53.68104 | -5.54056 | 8137 ft | 222 kts | 270° |
| 2026-02-20 09:21 | 53.68177 | -5.56682 | 8151 ft | 227 kts | 270° |
| 2026-02-20 09:21 | 53.68248 | -5.59374 | 8157 ft | 232 kts | 270° |
| 2026-02-20 09:22 | 53.68319 | -5.62101 | 8145 ft | 232 kts | 270° |
| 2026-02-20 09:22 | 53.68280 | -5.64800 | 8127 ft | 229 kts | 255° |
| 2026-02-20 09:22 | 53.67672 | -5.67264 | 8138 ft | 228 kts | 241° |
| 2026-02-20 09:22 | 53.66688 | -5.69371 | 8145 ft | 230 kts | 232° |
| 2026-02-20 09:23 | 53.65589 | -5.71337 | 8137 ft | 233 kts | 224° |
| 2026-02-20 09:23 | 53.64103 | -5.72536 | 8141 ft | 246 kts | 200° |
| 2026-02-20 09:23 | 53.62341 | -5.72624 | 7842 ft | 268 kts | 176° |
| 2026-02-20 09:23 | 53.60644 | -5.71287 | 7824 ft | 274 kts | 149° |
| 2026-02-20 09:24 | 53.59390 | -5.68879 | 7838 ft | 271 kts | 134° |
| 2026-02-20 09:24 | 53.58286 | -5.66333 | 7822 ft | 267 kts | 134° |
| 2026-02-20 09:24 | 53.57171 | -5.63853 | 7816 ft | 262 kts | 142° |
| 2026-02-20 09:24 | 53.55749 | -5.62132 | 7841 ft | 247 kts | 160° |
| 2026-02-20 09:25 | 53.54252 | -5.60675 | 7828 ft | 250 kts | 159° |
| 2026-02-20 09:25 | 53.52755 | -5.59170 | 7833 ft | 251 kts | 158° |
| 2026-02-20 09:25 | 53.51266 | -5.57649 | 7843 ft | 253 kts | 157° |
| 2026-02-20 09:25 | 53.49771 | -5.56088 | 7845 ft | 253 kts | 159° |
| 2026-02-20 09:26 | 53.48185 | -5.55047 | 7834 ft | 238 kts | 181° |
| 2026-02-20 09:26 | 53.46551 | -5.54670 | 7843 ft | 238 kts | 181° |
| 2026-02-20 09:26 | 53.44909 | -5.54244 | 7836 ft | 240 kts | 180° |
| 2026-02-20 09:26 | 53.43261 | -5.53798 | 7835 ft | 240 kts | 180° |
| 2026-02-20 09:27 | 53.41610 | -5.53346 | 7844 ft | 240 kts | 180° |
| 2026-02-20 09:27 | 53.39982 | -5.52916 | 7840 ft | 238 kts | 184° |
| 2026-02-20 09:27 | 53.38389 | -5.53195 | 7840 ft | 222 kts | 203° |
| 2026-02-20 09:27 | 53.36890 | -5.53826 | 7525 ft | 234 kts | 201° |
| 2026-02-20 09:28 | 53.35291 | -5.54444 | 7260 ft | 233 kts | 201° |
| 2026-02-20 09:28 | 53.33735 | -5.55025 | 7105 ft | 227 kts | 201° |
| 2026-02-20 09:28 | 53.32721 | -5.55403 | 6973 ft | 224 kts | 201° |
| 2026-02-20 09:28 | 53.31879 | -5.55717 | 6881 ft | 221 kts | 201° |
| 2026-02-20 09:29 | 53.30406 | -5.56329 | 6711 ft | 213 kts | 210° |
| 2026-02-20 09:29 | 53.29179 | -5.57583 | 6579 ft | 205 kts | 221° |
| 2026-02-20 09:29 | 53.27995 | -5.58937 | 6414 ft | 207 kts | 220° |
| 2026-02-20 09:29 | 53.26800 | -5.60278 | 6237 ft | 207 kts | 220° |
| 2026-02-20 09:30 | 53.25625 | -5.61646 | 6066 ft | 203 kts | 228° |
| 2026-02-20 09:30 | 53.24896 | -5.63570 | 5901 ft | 195 kts | 254° |
| 2026-02-20 09:30 | 53.24743 | -5.65799 | 5746 ft | 196 kts | 273° |
| 2026-02-20 09:30 | 53.25134 | -5.67993 | 5578 ft | 203 kts | 292° |
| 2026-02-20 09:31 | 53.26042 | -5.69859 | 5443 ft | 208 kts | 306° |
| 2026-02-20 09:31 | 53.27014 | -5.71519 | 5410 ft | 193 kts | 305° |
| 2026-02-20 09:31 | 53.27923 | -5.73080 | 5274 ft | 182 kts | 304° |
| 2026-02-20 09:31 | 53.28802 | -5.74598 | 5139 ft | 181 kts | 304° |
| 2026-02-20 09:32 | 53.29675 | -5.76109 | 4990 ft | 181 kts | 304° |
| 2026-02-20 09:32 | 53.30548 | -5.77619 | 4851 ft | 180 kts | 304° |
| 2026-02-20 09:32 | 53.31405 | -5.79103 | 4710 ft | 180 kts | 304° |
| 2026-02-20 09:32 | 53.32273 | -5.80605 | 4567 ft | 180 kts | 304° |
| 2026-02-20 09:33 | 53.33140 | -5.82106 | 4421 ft | 179 kts | 304° |
| 2026-02-20 09:33 | 53.33998 | -5.83591 | 4288 ft | 174 kts | 304° |
| 2026-02-20 09:33 | 53.34814 | -5.85000 | 4143 ft | 164 kts | 303° |
| 2026-02-20 09:33 | 53.35586 | -5.86335 | 4004 ft | 158 kts | 303° |
| 2026-02-20 09:34 | 53.36351 | -5.87667 | 3890 ft | 158 kts | 303° |
| 2026-02-20 09:34 | 53.37111 | -5.88989 | 3758 ft | 157 kts | 303° |
| 2026-02-20 09:34 | 53.37865 | -5.90301 | 3632 ft | 156 kts | 303° |
| 2026-02-20 09:34 | 53.38614 | -5.91603 | 3512 ft | 155 kts | 303° |
| 2026-02-20 09:35 | 53.39359 | -5.92897 | 3391 ft | 154 kts | 303° |
| 2026-02-20 09:35 | 53.40037 | -5.94245 | 3254 ft | 146 kts | 287° |
| 2026-02-20 09:35 | 53.40371 | -5.95796 | 3155 ft | 139 kts | 276° |
| 2026-02-20 09:35 | 53.40531 | -5.97393 | 3052 ft | 139 kts | 272° |
| 2026-02-20 09:36 | 53.40643 | -5.99001 | 2916 ft | 139 kts | 270° |
| 2026-02-20 09:36 | 53.40735 | -6.00552 | 2815 ft | 133 kts | 270° |
| 2026-02-20 09:36 | 53.40817 | -6.02066 | 2691 ft | 128 kts | 269° |
| 2026-02-20 09:36 | 53.40896 | -6.03571 | 2586 ft | 132 kts | 270° |
| 2026-02-20 09:37 | 53.40975 | -6.05086 | 2539 ft | 130 kts | 269° |
| 2026-02-20 09:37 | 53.41054 | -6.06610 | 2379 ft | 131 kts | 269° |
| 2026-02-20 09:37 | 53.41133 | -6.08129 | 2197 ft | 130 kts | 269° |
| 2026-02-20 09:37 | 53.41212 | -6.09624 | 2046 ft | 128 kts | 269° |
| 2026-02-20 09:38 | 53.41289 | -6.11082 | 1856 ft | 123 kts | 268° |
| 2026-02-20 09:38 | 53.41363 | -6.12503 | 1694 ft | 122 kts | 269° |
| 2026-02-20 09:38 | 53.41438 | -6.13938 | 1521 ft | 125 kts | 269° |
| 2026-02-20 09:38 | 53.41515 | -6.15394 | 1350 ft | 126 kts | 268° |
| 2026-02-20 09:39 | 53.41577 | -6.16869 | 1151 ft | 129 kts | 267° |
| 2026-02-20 09:39 | 53.41650 | -6.18390 | 983 ft | 132 kts | 267° |
| 2026-02-20 09:39 | 53.41735 | -6.19988 | 805 ft | 144 kts | 270° |
| 2026-02-20 09:39 | 53.41832 | -6.21654 | 652 ft | 143 kts | 271° |
| 2026-02-20 09:40 | 53.41926 | -6.23294 | 470 ft | 139 kts | 271° |
| 2026-02-20 09:40 | 53.41987 | -6.24377 | 358 ft | 144 kts | 275° |
| 2026-02-20 09:40 | 53.42106 | -6.26554 | 211 ft | 126 kts | 274° |
| 2026-02-20 09:40 | 53.42167 | -6.27648 | 212 ft | 61 kts | 276° |
| 2026-02-20 09:41 | 53.42214 | -6.27895 | 216 ft | 26 kts | 301° |
| 2026-02-20 09:41 | 53.42277 | -6.28069 | 213 ft | 3 kts | 301° |
| 2026-02-20 09:41 | 53.42278 | -6.28072 | 212 ft | 0 kts | 301° |